sensor_id;sensor_type;location;lat;lon;timestamp;pressure;altitude;pressure_sealevel;temperature;humidity
50710;BME280;37033;49.994;21.992;2023-05-08T00:00:36;100247.23;;;4.42;83.78
50710;BME280;37033;49.994;21.992;2023-05-08T00:03:18;100249.30;;;4.44;83.85
50710;BME280;37033;49.994;21.992;2023-05-08T00:05:49;100247.20;;;4.42;83.79
50710;BME280;37033;49.994;21.992;2023-05-08T00:08:19;100246.09;;;4.42;83.84
50710;BME280;37033;49.994;21.992;2023-05-08T00:10:50;100251.63;;;4.44;83.97
50710;BME280;37033;49.994;21.992;2023-05-08T00:13:21;100251.95;;;4.46;83.89
50710;BME280;37033;49.994;21.992;2023-05-08T00:15:52;100247.79;;;4.45;83.70
50710;BME280;37033;49.994;21.992;2023-05-08T00:18:23;100253.88;;;4.45;83.70
50710;BME280;37033;49.994;21.992;2023-05-08T00:20:54;100253.21;;;4.44;83.78
50710;BME280;37033;49.994;21.992;2023-05-08T00:23:25;100251.70;;;4.45;83.83
50710;BME280;37033;49.994;21.992;2023-05-08T00:25:56;100253.61;;;4.45;83.74
50710;BME280;37033;49.994;21.992;2023-05-08T00:28:26;100255.64;;;4.45;83.74
50710;BME280;37033;49.994;21.992;2023-05-08T00:30:59;100254.23;;;4.46;83.87
50710;BME280;37033;49.994;21.992;2023-05-08T00:33:30;100254.45;;;4.46;83.82
50710;BME280;37033;49.994;21.992;2023-05-08T00:36:02;100253.80;;;4.47;83.68
50710;BME280;37033;49.994;21.992;2023-05-08T00:38:33;100254.77;;;4.46;83.88
50710;BME280;37033;49.994;21.992;2023-05-08T00:41:04;100254.09;;;4.47;83.79
50710;BME280;37033;49.994;21.992;2023-05-08T00:43:35;100255.52;;;4.46;83.92
50710;BME280;37033;49.994;21.992;2023-05-08T00:46:08;100254.38;;;4.46;83.95
50710;BME280;37033;49.994;21.992;2023-05-08T00:48:40;100257.80;;;4.46;83.73
50710;BME280;37033;49.994;21.992;2023-05-08T00:51:12;100257.55;;;4.44;83.87
50710;BME280;37033;49.994;21.992;2023-05-08T00:53:43;100257.59;;;4.43;83.85
50710;BME280;37033;49.994;21.992;2023-05-08T00:56:15;100255.99;;;4.45;83.66
50710;BME280;37033;49.994;21.992;2023-05-08T00:58:47;100260.13;;;4.42;83.73
50710;BME280;37033;49.994;21.992;2023-05-08T01:01:18;100258.72;;;4.42;83.75
50710;BME280;37033;49.994;21.992;2023-05-08T01:03:49;100262.45;;;4.40;83.70
50710;BME280;37033;49.994;21.992;2023-05-08T01:06:20;100268.41;;;4.40;83.66
50710;BME280;37033;49.994;21.992;2023-05-08T01:08:50;100266.11;;;4.38;83.66
50710;BME280;37033;49.994;21.992;2023-05-08T01:11:27;100266.21;;;4.39;83.69
50710;BME280;37033;49.994;21.992;2023-05-08T01:14:10;100271.25;;;4.39;83.73
50710;BME280;37033;49.994;21.992;2023-05-08T01:16:51;100277.41;;;4.38;83.74
50710;BME280;37033;49.994;21.992;2023-05-08T01:19:48;100277.84;;;4.36;83.60
50710;BME280;37033;49.994;21.992;2023-05-08T01:22:37;100282.05;;;4.35;83.83
50710;BME280;37033;49.994;21.992;2023-05-08T01:25:34;100284.66;;;4.38;83.76
50710;BME280;37033;49.994;21.992;2023-05-08T01:28:37;100289.85;;;4.36;83.56
50710;BME280;37033;49.994;21.992;2023-05-08T01:31:19;100288.84;;;4.36;83.60
50710;BME280;37033;49.994;21.992;2023-05-08T01:33:58;100290.13;;;4.34;83.63
50710;BME280;37033;49.994;21.992;2023-05-08T01:36:40;100289.53;;;4.33;83.57
50710;BME280;37033;49.994;21.992;2023-05-08T01:39:19;100291.67;;;4.34;83.64
50710;BME280;37033;49.994;21.992;2023-05-08T01:41:55;100291.99;;;4.36;83.79
50710;BME280;37033;49.994;21.992;2023-05-08T01:44:30;100293.55;;;4.35;83.77
50710;BME280;37033;49.994;21.992;2023-05-08T01:47:06;100296.30;;;4.33;83.57
50710;BME280;37033;49.994;21.992;2023-05-08T01:49:41;100299.56;;;4.36;83.66
50710;BME280;37033;49.994;21.992;2023-05-08T01:52:20;100302.10;;;4.36;83.71
50710;BME280;37033;49.994;21.992;2023-05-08T01:54:56;100299.04;;;4.36;83.63
50710;BME280;37033;49.994;21.992;2023-05-08T01:57:29;100295.98;;;4.34;83.61
50710;BME280;37033;49.994;21.992;2023-05-08T02:00:03;100302.99;;;4.33;83.53
50710;BME280;37033;49.994;21.992;2023-05-08T02:02:38;100298.46;;;4.32;83.61
50710;BME280;37033;49.994;21.992;2023-05-08T02:05:10;100299.88;;;4.30;83.48
50710;BME280;37033;49.994;21.992;2023-05-08T02:07:43;100303.52;;;4.30;83.53
50710;BME280;37033;49.994;21.992;2023-05-08T02:10:17;100296.98;;;4.29;83.68
50710;BME280;37033;49.994;21.992;2023-05-08T02:12:48;100300.73;;;4.27;83.54
50710;BME280;37033;49.994;21.992;2023-05-08T02:15:21;100303.44;;;4.27;83.58
50710;BME280;37033;49.994;21.992;2023-05-08T02:17:54;100301.05;;;4.25;83.49
50710;BME280;37033;49.994;21.992;2023-05-08T02:20:26;100298.23;;;4.26;83.52
50710;BME280;37033;49.994;21.992;2023-05-08T02:22:58;100301.63;;;4.26;83.65
50710;BME280;37033;49.994;21.992;2023-05-08T02:25:30;100301.02;;;4.27;83.50
50710;BME280;37033;49.994;21.992;2023-05-08T02:28:02;100300.92;;;4.26;83.54
50710;BME280;37033;49.994;21.992;2023-05-08T02:30:35;100306.95;;;4.25;83.64
50710;BME280;37033;49.994;21.992;2023-05-08T02:33:09;100309.80;;;4.25;83.55
50710;BME280;37033;49.994;21.992;2023-05-08T02:35:42;100314.75;;;4.24;83.46
50710;BME280;37033;49.994;21.992;2023-05-08T02:38:14;100315.98;;;4.23;83.39
50710;BME280;37033;49.994;21.992;2023-05-08T02:40:48;100315.95;;;4.22;83.49
50710;BME280;37033;49.994;21.992;2023-05-08T02:43:20;100318.27;;;4.22;83.65
50710;BME280;37033;49.994;21.992;2023-05-08T02:46:00;100315.93;;;4.19;83.51
50710;BME280;37033;49.994;21.992;2023-05-08T02:48:37;100317.23;;;4.20;83.58
50710;BME280;37033;49.994;21.992;2023-05-08T02:51:20;100314.20;;;4.20;83.55
50710;BME280;37033;49.994;21.992;2023-05-08T02:53:56;100312.84;;;4.18;83.50
50710;BME280;37033;49.994;21.992;2023-05-08T02:56:33;100318.94;;;4.16;83.49
50710;BME280;37033;49.994;21.992;2023-05-08T02:59:15;100318.88;;;4.15;83.64
50710;BME280;37033;49.994;21.992;2023-05-08T03:01:51;100318.14;;;4.13;83.73
50710;BME280;37033;49.994;21.992;2023-05-08T03:04:30;100322.03;;;4.15;83.83
50710;BME280;37033;49.994;21.992;2023-05-08T03:07:02;100318.58;;;4.13;83.59
50710;BME280;37033;49.994;21.992;2023-05-08T03:09:38;100324.27;;;4.11;83.65
50710;BME280;37033;49.994;21.992;2023-05-08T03:12:16;100321.45;;;4.11;83.55
50710;BME280;37033;49.994;21.992;2023-05-08T03:14:54;100322.27;;;4.10;83.64
50710;BME280;37033;49.994;21.992;2023-05-08T03:17:29;100323.48;;;4.11;83.57
50710;BME280;37033;49.994;21.992;2023-05-08T03:20:04;100319.34;;;4.09;83.52
50710;BME280;37033;49.994;21.992;2023-05-08T03:22:37;100321.56;;;4.09;83.41
50710;BME280;37033;49.994;21.992;2023-05-08T03:25:11;100324.47;;;4.07;83.49
50710;BME280;37033;49.994;21.992;2023-05-08T03:27:44;100327.33;;;4.07;83.53
50710;BME280;37033;49.994;21.992;2023-05-08T03:30:15;100325.48;;;4.07;83.46
50710;BME280;37033;49.994;21.992;2023-05-08T03:32:48;100326.67;;;4.06;83.73
50710;BME280;37033;49.994;21.992;2023-05-08T03:35:19;100331.31;;;4.05;83.72
50710;BME280;37033;49.994;21.992;2023-05-08T03:37:53;100329.71;;;4.08;83.60
50710;BME280;37033;49.994;21.992;2023-05-08T03:40:24;100329.61;;;4.07;83.47
50710;BME280;37033;49.994;21.992;2023-05-08T03:43:01;100334.08;;;4.06;83.51
50710;BME280;37033;49.994;21.992;2023-05-08T03:45:35;100336.77;;;4.07;83.74
50710;BME280;37033;49.994;21.992;2023-05-08T03:48:10;100338.19;;;4.07;83.60
50710;BME280;37033;49.994;21.992;2023-05-08T03:50:42;100343.43;;;4.09;83.56
50710;BME280;37033;49.994;21.992;2023-05-08T03:53:14;100339.90;;;4.08;83.49
50710;BME280;37033;49.994;21.992;2023-05-08T03:55:48;100341.05;;;4.08;83.47
50710;BME280;37033;49.994;21.992;2023-05-08T03:58:25;100341.05;;;4.08;83.53
50710;BME280;37033;49.994;21.992;2023-05-08T04:01:04;100342.39;;;4.08;83.47
50710;BME280;37033;49.994;21.992;2023-05-08T04:03:48;100341.77;;;4.09;83.37
50710;BME280;37033;49.994;21.992;2023-05-08T04:06:27;100342.92;;;4.08;83.50
50710;BME280;37033;49.994;21.992;2023-05-08T04:09:08;100346.56;;;4.08;83.38
50710;BME280;37033;49.994;21.992;2023-05-08T04:11:55;100346.54;;;4.07;83.50
50710;BME280;37033;49.994;21.992;2023-05-08T04:14:36;100349.30;;;4.08;83.58
50710;BME280;37033;49.994;21.992;2023-05-08T04:17:13;100355.52;;;4.08;83.50
50710;BME280;37033;49.994;21.992;2023-05-08T04:19:47;100358.09;;;4.09;83.41
50710;BME280;37033;49.994;21.992;2023-05-08T04:22:23;100365.59;;;4.09;83.22
50710;BME280;37033;49.994;21.992;2023-05-08T04:25:00;100366.33;;;4.09;83.43
50710;BME280;37033;49.994;21.992;2023-05-08T04:27:35;100363.42;;;4.11;83.45
50710;BME280;37033;49.994;21.992;2023-05-08T04:30:09;100363.33;;;4.12;83.38
50710;BME280;37033;49.994;21.992;2023-05-08T04:32:43;100367.13;;;4.10;83.25
50710;BME280;37033;49.994;21.992;2023-05-08T04:35:14;100369.95;;;4.12;83.34
50710;BME280;37033;49.994;21.992;2023-05-08T04:37:46;100370.84;;;4.13;83.24
50710;BME280;37033;49.994;21.992;2023-05-08T04:40:20;100374.14;;;4.14;83.22
50710;BME280;37033;49.994;21.992;2023-05-08T04:42:50;100379.64;;;4.19;83.18
50710;BME280;37033;49.994;21.992;2023-05-08T04:45:21;100381.80;;;4.19;82.99
50710;BME280;37033;49.994;21.992;2023-05-08T04:47:52;100386.07;;;4.19;83.18
50710;BME280;37033;49.994;21.992;2023-05-08T04:50:24;100387.59;;;4.21;82.92
50710;BME280;37033;49.994;21.992;2023-05-08T04:53:00;100391.82;;;4.23;83.02
50710;BME280;37033;49.994;21.992;2023-05-08T04:55:31;100393.06;;;4.24;83.04
50710;BME280;37033;49.994;21.992;2023-05-08T04:58:04;100395.84;;;4.27;82.93
50710;BME280;37033;49.994;21.992;2023-05-08T05:00:36;100399.71;;;4.28;82.79
50710;BME280;37033;49.994;21.992;2023-05-08T05:03:06;100395.45;;;4.28;82.49
50710;BME280;37033;49.994;21.992;2023-05-08T05:05:40;100398.30;;;4.26;82.80
50710;BME280;37033;49.994;21.992;2023-05-08T05:08:11;100399.45;;;4.27;82.93
50710;BME280;37033;49.994;21.992;2023-05-08T05:10:48;100406.89;;;4.28;82.76
50710;BME280;37033;49.994;21.992;2023-05-08T05:13:19;100407.34;;;4.30;82.91
50710;BME280;37033;49.994;21.992;2023-05-08T05:15:50;100407.09;;;4.32;82.88
50710;BME280;37033;49.994;21.992;2023-05-08T05:18:25;100407.58;;;4.36;82.79
50710;BME280;37033;49.994;21.992;2023-05-08T05:20:59;100410.05;;;4.40;82.58
50710;BME280;37033;49.994;21.992;2023-05-08T05:23:29;100415.00;;;4.40;82.37
50710;BME280;37033;49.994;21.992;2023-05-08T05:26:05;100412.66;;;4.42;82.37
50710;BME280;37033;49.994;21.992;2023-05-08T05:28:36;100416.12;;;4.43;82.09
50710;BME280;37033;49.994;21.992;2023-05-08T05:31:10;100422.52;;;4.44;82.06
50710;BME280;37033;49.994;21.992;2023-05-08T05:33:43;100424.23;;;4.44;82.18
50710;BME280;37033;49.994;21.992;2023-05-08T05:36:17;100422.53;;;4.47;82.19
50710;BME280;37033;49.994;21.992;2023-05-08T05:38:48;100423.38;;;4.47;81.88
50710;BME280;37033;49.994;21.992;2023-05-08T05:41:22;100428.65;;;4.48;82.16
50710;BME280;37033;49.994;21.992;2023-05-08T05:43:58;100427.80;;;4.51;82.04
50710;BME280;37033;49.994;21.992;2023-05-08T05:46:34;100434.86;;;4.50;81.96
50710;BME280;37033;49.994;21.992;2023-05-08T05:49:05;100438.31;;;4.54;81.86
50710;BME280;37033;49.994;21.992;2023-05-08T05:51:36;100438.85;;;4.54;81.99
50710;BME280;37033;49.994;21.992;2023-05-08T05:54:07;100441.47;;;4.57;81.91
50710;BME280;37033;49.994;21.992;2023-05-08T05:56:41;100443.63;;;4.57;81.97
50710;BME280;37033;49.994;21.992;2023-05-08T05:59:14;100442.41;;;4.61;81.93
50710;BME280;37033;49.994;21.992;2023-05-08T06:01:50;100443.66;;;4.66;81.76
50710;BME280;37033;49.994;21.992;2023-05-08T06:04:27;100443.80;;;4.68;81.66
50710;BME280;37033;49.994;21.992;2023-05-08T06:06:57;100446.13;;;4.73;81.62
50710;BME280;37033;49.994;21.992;2023-05-08T06:09:28;100443.48;;;4.80;81.72
50710;BME280;37033;49.994;21.992;2023-05-08T06:11:59;100447.33;;;4.85;81.28
50710;BME280;37033;49.994;21.992;2023-05-08T06:14:32;100450.35;;;4.87;80.94
50710;BME280;37033;49.994;21.992;2023-05-08T06:17:03;100448.66;;;4.88;80.91
50710;BME280;37033;49.994;21.992;2023-05-08T06:19:37;100448.34;;;4.91;80.88
50710;BME280;37033;49.994;21.992;2023-05-08T06:22:08;100452.45;;;4.94;80.86
50710;BME280;37033;49.994;21.992;2023-05-08T06:24:38;100451.52;;;4.99;80.86
50710;BME280;37033;49.994;21.992;2023-05-08T06:27:09;100450.13;;;5.05;80.95
50710;BME280;37033;49.994;21.992;2023-05-08T06:29:43;100454.67;;;5.13;80.52
50710;BME280;37033;49.994;21.992;2023-05-08T06:32:14;100454.94;;;5.16;80.38
50710;BME280;37033;49.994;21.992;2023-05-08T06:34:44;100457.27;;;5.19;80.03
50710;BME280;37033;49.994;21.992;2023-05-08T06:37:15;100461.08;;;5.23;79.85
50710;BME280;37033;49.994;21.992;2023-05-08T06:39:46;100458.09;;;5.27;79.38
50710;BME280;37033;49.994;21.992;2023-05-08T06:42:17;100459.76;;;5.30;79.08
50710;BME280;37033;49.994;21.992;2023-05-08T06:44:47;100459.39;;;5.36;79.05
50710;BME280;37033;49.994;21.992;2023-05-08T06:47:19;100463.13;;;5.44;79.05
50710;BME280;37033;49.994;21.992;2023-05-08T06:49:50;100462.92;;;5.55;78.83
50710;BME280;37033;49.994;21.992;2023-05-08T06:52:27;100458.13;;;5.60;78.06
50710;BME280;37033;49.994;21.992;2023-05-08T06:54:58;100459.38;;;5.67;77.69
50710;BME280;37033;49.994;21.992;2023-05-08T06:57:32;100460.91;;;5.72;77.81
50710;BME280;37033;49.994;21.992;2023-05-08T07:00:05;100464.48;;;5.81;77.48
50710;BME280;37033;49.994;21.992;2023-05-08T07:02:41;100471.42;;;5.92;76.96
50710;BME280;37033;49.994;21.992;2023-05-08T07:05:15;100472.86;;;6.00;76.01
50710;BME280;37033;49.994;21.992;2023-05-08T07:07:48;100475.36;;;6.03;76.10
50710;BME280;37033;49.994;21.992;2023-05-08T07:10:18;100475.48;;;6.05;75.61
50710;BME280;37033;49.994;21.992;2023-05-08T07:12:53;100474.45;;;6.05;75.09
50710;BME280;37033;49.994;21.992;2023-05-08T07:15:24;100475.64;;;6.05;75.51
50710;BME280;37033;49.994;21.992;2023-05-08T07:17:58;100476.98;;;6.12;74.93
50710;BME280;37033;49.994;21.992;2023-05-08T07:20:29;100477.34;;;6.17;74.89
50710;BME280;37033;49.994;21.992;2023-05-08T07:23:03;100476.44;;;6.24;74.78
50710;BME280;37033;49.994;21.992;2023-05-08T07:25:38;100477.80;;;6.32;74.34
50710;BME280;37033;49.994;21.992;2023-05-08T07:28:08;100479.70;;;6.43;74.54
50710;BME280;37033;49.994;21.992;2023-05-08T07:30:39;100475.88;;;6.54;74.56
50710;BME280;37033;49.994;21.992;2023-05-08T07:33:12;100483.90;;;6.64;74.14
50710;BME280;37033;49.994;21.992;2023-05-08T07:35:43;100477.32;;;6.69;73.63
50710;BME280;37033;49.994;21.992;2023-05-08T07:38:14;100488.58;;;6.72;73.12
50710;BME280;37033;49.994;21.992;2023-05-08T07:40:48;100485.94;;;6.75;73.17
50710;BME280;37033;49.994;21.992;2023-05-08T07:43:20;100482.58;;;6.81;73.47
50710;BME280;37033;49.994;21.992;2023-05-08T07:45:50;100480.97;;;6.93;73.49
50710;BME280;37033;49.994;21.992;2023-05-08T07:48:24;100473.27;;;7.04;73.23
50710;BME280;37033;49.994;21.992;2023-05-08T07:50:55;100477.52;;;7.14;72.77
50710;BME280;37033;49.994;21.992;2023-05-08T07:53:29;100472.23;;;7.20;72.06
50710;BME280;37033;49.994;21.992;2023-05-08T07:56:02;100470.88;;;7.28;71.30
50710;BME280;37033;49.994;21.992;2023-05-08T07:58:34;100474.79;;;7.29;70.72
50710;BME280;37033;49.994;21.992;2023-05-08T08:01:04;100469.54;;;7.36;71.19
50710;BME280;37033;49.994;21.992;2023-05-08T08:03:35;100469.42;;;7.44;71.41
50710;BME280;37033;49.994;21.992;2023-05-08T08:06:09;100471.12;;;7.53;71.40
50710;BME280;37033;49.994;21.992;2023-05-08T08:08:40;100473.80;;;7.66;70.05
50710;BME280;37033;49.994;21.992;2023-05-08T08:11:10;100468.55;;;7.76;69.57
50710;BME280;37033;49.994;21.992;2023-05-08T08:13:41;100471.98;;;7.83;69.10
50710;BME280;37033;49.994;21.992;2023-05-08T08:16:12;100473.42;;;7.90;68.83
50710;BME280;37033;49.994;21.992;2023-05-08T08:18:43;100478.95;;;7.89;68.52
50710;BME280;37033;49.994;21.992;2023-05-08T08:21:13;100477.86;;;7.89;68.82
50710;BME280;37033;49.994;21.992;2023-05-08T08:23:46;100478.83;;;7.93;68.84
50710;BME280;37033;49.994;21.992;2023-05-08T08:26:20;100479.85;;;7.99;68.52
50710;BME280;37033;49.994;21.992;2023-05-08T08:28:56;100475.08;;;8.04;68.21
50710;BME280;37033;49.994;21.992;2023-05-08T08:31:30;100479.66;;;8.16;67.98
50710;BME280;37033;49.994;21.992;2023-05-08T08:34:00;100473.98;;;8.28;67.60
50710;BME280;37033;49.994;21.992;2023-05-08T08:36:34;100477.67;;;8.38;67.10
50710;BME280;37033;49.994;21.992;2023-05-08T08:39:05;100475.22;;;8.45;65.74
50710;BME280;37033;49.994;21.992;2023-05-08T08:41:36;100480.20;;;8.48;65.43
50710;BME280;37033;49.994;21.992;2023-05-08T08:44:10;100476.31;;;8.53;65.88
50710;BME280;37033;49.994;21.992;2023-05-08T08:46:50;100474.77;;;8.61;65.45
50710;BME280;37033;49.994;21.992;2023-05-08T08:49:27;100474.92;;;8.60;64.10
50710;BME280;37033;49.994;21.992;2023-05-08T08:52:09;100474.12;;;8.56;64.51
50710;BME280;37033;49.994;21.992;2023-05-08T08:54:47;100466.07;;;8.68;65.52
50710;BME280;37033;49.994;21.992;2023-05-08T08:57:21;100467.27;;;8.87;64.84
50710;BME280;37033;49.994;21.992;2023-05-08T08:59:52;100465.44;;;9.03;62.47
50710;BME280;37033;49.994;21.992;2023-05-08T09:02:24;100464.54;;;9.11;63.14
50710;BME280;37033;49.994;21.992;2023-05-08T09:04:59;100464.05;;;9.22;62.18
50710;BME280;37033;49.994;21.992;2023-05-08T09:07:30;100468.52;;;9.24;62.91
50710;BME280;37033;49.994;21.992;2023-05-08T09:10:01;100467.66;;;9.25;60.93
50710;BME280;37033;49.994;21.992;2023-05-08T09:12:35;100472.11;;;9.20;61.93
50710;BME280;37033;49.994;21.992;2023-05-08T09:15:09;100473.89;;;9.21;62.07
50710;BME280;37033;49.994;21.992;2023-05-08T09:17:43;100474.25;;;9.22;62.28
50710;BME280;37033;49.994;21.992;2023-05-08T09:20:19;100478.67;;;9.24;62.90
50710;BME280;37033;49.994;21.992;2023-05-08T09:22:51;100478.89;;;9.31;62.55
50710;BME280;37033;49.994;21.992;2023-05-08T09:25:23;100483.83;;;9.33;62.02
50710;BME280;37033;49.994;21.992;2023-05-08T09:27:54;100483.40;;;9.32;62.41
50710;BME280;37033;49.994;21.992;2023-05-08T09:30:51;100478.98;;;9.33;61.63
50710;BME280;37033;49.994;21.992;2023-05-08T09:33:22;100483.68;;;9.27;61.52
50710;BME280;37033;49.994;21.992;2023-05-08T09:35:54;100486.09;;;9.23;61.33
50710;BME280;37033;49.994;21.992;2023-05-08T09:38:35;100481.70;;;9.19;60.91
50710;BME280;37033;49.994;21.992;2023-05-08T09:41:13;100483.34;;;9.15;61.28
50710;BME280;37033;49.994;21.992;2023-05-08T09:43:59;100486.15;;;9.14;61.18
50710;BME280;37033;49.994;21.992;2023-05-08T09:46:30;100484.27;;;9.09;60.28
50710;BME280;37033;49.994;21.992;2023-05-08T09:49:06;100487.52;;;9.03;60.08
50710;BME280;37033;49.994;21.992;2023-05-08T09:51:53;100486.57;;;8.96;60.69
50710;BME280;37033;49.994;21.992;2023-05-08T09:54:23;100493.77;;;8.99;60.83
50710;BME280;37033;49.994;21.992;2023-05-08T09:57:00;100492.25;;;9.00;61.23
50710;BME280;37033;49.994;21.992;2023-05-08T09:59:43;100494.91;;;9.07;61.54
50710;BME280;37033;49.994;21.992;2023-05-08T10:02:14;100495.71;;;9.09;60.68
50710;BME280;37033;49.994;21.992;2023-05-08T10:04:49;100495.05;;;9.03;60.62
50710;BME280;37033;49.994;21.992;2023-05-08T10:07:27;100496.56;;;9.00;60.43
50710;BME280;37033;49.994;21.992;2023-05-08T10:10:03;100495.38;;;8.98;59.56
50710;BME280;37033;49.994;21.992;2023-05-08T10:12:37;100491.61;;;8.94;59.46
50710;BME280;37033;49.994;21.992;2023-05-08T10:15:14;100492.07;;;8.92;60.06
50710;BME280;37033;49.994;21.992;2023-05-08T10:17:52;100492.59;;;8.96;60.76
50710;BME280;37033;49.994;21.992;2023-05-08T10:20:33;100490.19;;;9.05;60.69
50710;BME280;37033;49.994;21.992;2023-05-08T10:23:07;100489.38;;;9.16;60.96
50710;BME280;37033;49.994;21.992;2023-05-08T10:25:44;100493.56;;;9.23;60.10
50710;BME280;37033;49.994;21.992;2023-05-08T10:28:27;100493.45;;;9.27;59.97
50710;BME280;37033;49.994;21.992;2023-05-08T10:31:04;100488.32;;;9.31;60.69
50710;BME280;37033;49.994;21.992;2023-05-08T10:33:40;100490.35;;;9.41;61.09
50710;BME280;37033;49.994;21.992;2023-05-08T10:36:21;100489.02;;;9.49;60.85
50710;BME280;37033;49.994;21.992;2023-05-08T10:38:54;100489.36;;;9.55;60.43
50710;BME280;37033;49.994;21.992;2023-05-08T10:41:27;100486.02;;;9.60;59.84
50710;BME280;37033;49.994;21.992;2023-05-08T10:44:02;100488.35;;;9.62;58.89
50710;BME280;37033;49.994;21.992;2023-05-08T10:46:45;100488.02;;;9.63;58.93
50710;BME280;37033;49.994;21.992;2023-05-08T10:49:27;100484.98;;;9.66;58.78
50710;BME280;37033;49.994;21.992;2023-05-08T10:52:14;100481.01;;;9.67;58.04
50710;BME280;37033;49.994;21.992;2023-05-08T10:55:08;100473.65;;;9.84;58.33
50710;BME280;37033;49.994;21.992;2023-05-08T10:58:02;100475.19;;;10.23;58.21
50710;BME280;37033;49.994;21.992;2023-05-08T11:03:50;100465.63;;;10.75;57.18
50710;BME280;37033;49.994;21.992;2023-05-08T11:06:45;100471.84;;;10.72;54.70
50710;BME280;37033;49.994;21.992;2023-05-08T11:09:21;100470.06;;;10.67;56.17
50710;BME280;37033;49.994;21.992;2023-05-08T11:11:58;100474.61;;;10.68;56.32
50710;BME280;37033;49.994;21.992;2023-05-08T11:14:30;100473.45;;;10.66;56.36
50710;BME280;37033;49.994;21.992;2023-05-08T11:17:06;100478.91;;;10.58;55.47
50710;BME280;37033;49.994;21.992;2023-05-08T11:19:53;100478.74;;;10.47;55.05
50710;BME280;37033;49.994;21.992;2023-05-08T11:22:31;100477.11;;;10.32;55.70
50710;BME280;37033;49.994;21.992;2023-05-08T11:25:04;100475.09;;;10.29;55.80
50710;BME280;37033;49.994;21.992;2023-05-08T11:30:44;100471.00;;;10.26;55.55
50710;BME280;37033;49.994;21.992;2023-05-08T11:33:16;100471.45;;;10.28;55.10
50710;BME280;37033;49.994;21.992;2023-05-08T11:35:49;100471.02;;;10.28;55.66
50710;BME280;37033;49.994;21.992;2023-05-08T11:38:34;100469.38;;;10.35;55.94
50710;BME280;37033;49.994;21.992;2023-05-08T11:41:10;100470.48;;;10.43;54.88
50710;BME280;37033;49.994;21.992;2023-05-08T11:44:11;100460.23;;;10.42;54.58
50710;BME280;37033;49.994;21.992;2023-05-08T11:46:49;100458.43;;;10.45;54.97
50710;BME280;37033;49.994;21.992;2023-05-08T11:49:25;100458.55;;;10.48;54.03
50710;BME280;37033;49.994;21.992;2023-05-08T11:51:59;100454.15;;;10.45;53.88
50710;BME280;37033;49.994;21.992;2023-05-08T11:54:34;100458.23;;;10.42;53.70
50710;BME280;37033;49.994;21.992;2023-05-08T11:57:08;100455.61;;;10.39;54.01
50710;BME280;37033;49.994;21.992;2023-05-08T11:59:49;100455.31;;;10.41;54.01
50710;BME280;37033;49.994;21.992;2023-05-08T12:02:34;100454.27;;;10.42;53.74
50710;BME280;37033;49.994;21.992;2023-05-08T12:05:07;100453.29;;;10.44;53.95
50710;BME280;37033;49.994;21.992;2023-05-08T12:07:47;100452.44;;;10.46;54.03
50710;BME280;37033;49.994;21.992;2023-05-08T12:10:20;100451.50;;;10.49;53.77
50710;BME280;37033;49.994;21.992;2023-05-08T12:12:51;100449.59;;;10.50;53.45
50710;BME280;37033;49.994;21.992;2023-05-08T12:15:22;100453.21;;;10.54;52.91
50710;BME280;37033;49.994;21.992;2023-05-08T12:18:02;100454.79;;;10.58;52.03
50710;BME280;37033;49.994;21.992;2023-05-08T12:20:36;100458.05;;;10.61;51.64
50710;BME280;37033;49.994;21.992;2023-05-08T12:23:06;100459.73;;;10.65;52.07
50710;BME280;37033;49.994;21.992;2023-05-08T12:25:41;100456.79;;;10.76;51.89
50710;BME280;37033;49.994;21.992;2023-05-08T12:28:11;100455.73;;;10.82;52.40
50710;BME280;37033;49.994;21.992;2023-05-08T12:30:42;100449.60;;;10.92;52.11
50710;BME280;37033;49.994;21.992;2023-05-08T12:33:13;100454.42;;;10.99;51.70
50710;BME280;37033;49.994;21.992;2023-05-08T12:35:47;100454.34;;;11.06;52.13
50710;BME280;37033;49.994;21.992;2023-05-08T12:38:25;100454.73;;;11.12;51.68
50710;BME280;37033;49.994;21.992;2023-05-08T12:40:56;100447.43;;;11.19;51.88
50710;BME280;37033;49.994;21.992;2023-05-08T12:43:35;100447.98;;;11.24;51.02
50710;BME280;37033;49.994;21.992;2023-05-08T12:46:16;100447.56;;;11.26;50.90
50710;BME280;37033;49.994;21.992;2023-05-08T12:48:50;100447.08;;;11.23;50.44
50710;BME280;37033;49.994;21.992;2023-05-08T12:51:38;100453.41;;;11.18;50.66
50710;BME280;37033;49.994;21.992;2023-05-08T12:54:15;100442.86;;;11.20;50.79
50710;BME280;37033;49.994;21.992;2023-05-08T12:56:46;100443.79;;;11.24;51.07
50710;BME280;37033;49.994;21.992;2023-05-08T12:59:29;100443.40;;;11.29;51.04
50710;BME280;37033;49.994;21.992;2023-05-08T13:02:03;100440.72;;;11.34;51.58
50710;BME280;37033;49.994;21.992;2023-05-08T13:04:38;100433.23;;;11.49;51.55
50710;BME280;37033;49.994;21.992;2023-05-08T13:07:11;100432.63;;;11.65;51.79
50710;BME280;37033;49.994;21.992;2023-05-08T13:09:56;100432.02;;;11.77;51.85
50710;BME280;37033;49.994;21.992;2023-05-08T13:12:30;100436.04;;;11.82;50.43
50710;BME280;37033;49.994;21.992;2023-05-08T13:15:01;100434.91;;;11.73;50.42
50710;BME280;37033;49.994;21.992;2023-05-08T13:17:33;100432.47;;;11.65;50.59
50710;BME280;37033;49.994;21.992;2023-05-08T13:20:11;100436.64;;;11.51;49.65
50710;BME280;37033;49.994;21.992;2023-05-08T13:22:47;100432.86;;;11.36;50.20
50710;BME280;37033;49.994;21.992;2023-05-08T13:25:22;100434.11;;;11.39;50.69
50710;BME280;37033;49.994;21.992;2023-05-08T13:27:58;100424.36;;;11.62;49.92
50710;BME280;37033;49.994;21.992;2023-05-08T13:30:35;100420.14;;;11.79;50.02
50710;BME280;37033;49.994;21.992;2023-05-08T13:33:06;100416.09;;;11.89;50.39